Time;durP1;ratioP1;P1;durP2;ratioP2;P2;SDS_P1;SDS_P2;PMS_P1;PMS_P2;Temp;Humidity;BMP_temperature;BMP_pressure;BME280_temperature;BME280_humidity;BME280_pressure;Samples;Min_cycle;Max_cycle;Signal;HPM_P1;HPM_P2
2021/12/29 00:02:09;;;;;;;79.88;11.35;;;13.70;99.90;;;;;;5009878;28;20026;-82
2021/12/29 00:04:36;;;;;;;85.05;11.38;;;13.70;99.90;;;;;;5009850;28;20029;-82
2021/12/29 00:07:02;;;;;;;68.88;9.15;;;13.60;99.90;;;;;;5009995;28;20316;-82
2021/12/29 00:09:29;;;;;;;73.55;10.23;;;13.70;99.90;;;;;;5010302;28;20277;-82
2021/12/29 00:11:54;;;;;;;65.78;9.77;;;13.70;99.90;;;;;;5010155;28;20332;-82
2021/12/29 00:14:20;;;;;;;88.38;10.13;;;13.70;99.90;;;;;;4992370;28;20353;-82
2021/12/29 00:16:46;;;;;;;79.35;10.13;;;13.70;99.90;;;;;;5010095;28;20532;-82
2021/12/29 00:19:11;;;;;;;75.40;9.57;;;13.70;99.90;;;;;;5009752;28;20025;-82
2021/12/29 00:21:37;;;;;;;85.18;11.40;;;13.70;99.90;;;;;;5009755;28;20037;-82
2021/12/29 00:24:05;;;;;;;72.88;9.02;;;13.70;99.90;;;;;;5010054;28;20164;-82
2021/12/29 00:26:33;;;;;;;84.93;10.48;;;13.60;99.90;;;;;;5009847;28;20037;-82
2021/12/29 00:29:00;;;;;;;68.88;9.20;;;13.60;99.90;;;;;;4992248;28;20350;-82
2021/12/29 00:31:28;;;;;;;66.10;9.10;;;13.60;99.90;;;;;;5010122;28;20057;-82
2021/12/29 00:33:54;;;;;;;73.22;9.38;;;13.60;99.90;;;;;;5010213;28;20475;-82
2021/12/29 00:36:20;;;;;;;82.07;11.00;;;13.60;99.90;;;;;;5013880;28;20022;-82
2021/12/29 00:38:46;;;;;;;84.80;11.18;;;13.50;99.90;;;;;;4996039;28;20026;-82
2021/12/29 00:41:12;;;;;;;87.50;12.60;;;13.50;99.90;;;;;;5013639;28;20422;-82
2021/12/29 00:43:38;;;;;;;72.82;10.93;;;13.40;99.90;;;;;;5013418;28;20040;-82
2021/12/29 00:46:07;;;;;;;75.68;9.48;;;13.40;99.90;;;;;;5013481;28;20032;-82
2021/12/29 00:48:36;;;;;;;82.35;10.57;;;13.30;99.90;;;;;;5013455;28;20092;-82
2021/12/29 00:51:03;;;;;;;95.30;13.00;;;13.30;99.90;;;;;;5013369;28;20084;-82
2021/12/29 00:53:29;;;;;;;78.32;8.98;;;13.20;99.90;;;;;;5013977;28;20018;-82
2021/12/29 00:55:55;;;;;;;69.40;9.05;;;13.20;99.90;;;;;;5013608;28;20030;-82
2021/12/29 00:58:20;;;;;;;75.88;10.55;;;13.20;99.90;;;;;;5013367;28;20026;-82
2021/12/29 01:00:47;;;;;;;71.53;8.82;;;13.20;99.90;;;;;;5013221;28;20058;-82
2021/12/29 01:03:13;;;;;;;63.88;8.20;;;13.20;99.90;;;;;;5013113;28;20033;-82
2021/12/29 01:05:39;;;;;;;67.65;8.25;;;13.20;99.90;;;;;;5013015;28;20088;-82
2021/12/29 01:08:05;;;;;;;65.38;9.45;;;13.20;99.90;;;;;;5013276;28;20522;-82
2021/12/29 01:10:32;;;;;;;51.03;8.50;;;13.20;99.90;;;;;;5013190;28;20033;-82
2021/12/29 01:13:01;;;;;;;65.25;9.52;;;13.20;99.90;;;;;;4995430;28;20463;-82
2021/12/29 01:15:36;;;;;;;56.30;7.45;;;13.10;99.90;;;;;;5013042;28;20065;-82
2021/12/29 01:18:04;;;;;;;54.38;6.82;;;13.10;99.90;;;;;;5013161;28;20510;-82
2021/12/29 01:20:32;;;;;;;54.10;7.53;;;13.10;99.90;;;;;;5012781;28;20062;-82
2021/12/29 01:22:59;;;;;;;55.25;6.35;;;13.10;99.90;;;;;;5012850;28;20125;-82
2021/12/29 01:25:26;;;;;;;50.30;6.80;;;13.10;99.90;;;;;;5012975;28;20029;-82
2021/12/29 01:27:52;;;;;;;50.20;6.40;;;13.10;99.90;;;;;;5012758;28;20051;-82
2021/12/29 01:30:19;;;;;;;40.00;5.75;;;13.10;99.90;;;;;;4995153;28;20026;-82
2021/12/29 01:32:44;;;;;;;36.65;5.25;;;13.10;99.90;;;;;;5013057;28;20034;-82
2021/12/29 01:35:12;;;;;;;32.28;4.50;;;13.10;99.90;;;;;;5012734;28;20033;-83
2021/12/29 01:37:38;;;;;;;22.83;4.28;;;13.10;99.90;;;;;;5013112;28;20036;-84
2021/12/29 01:40:08;;;;;;;22.02;4.47;;;13.10;99.90;;;;;;5012914;28;20076;-87
2021/12/29 01:42:33;;;;;;;19.17;3.20;;;13.10;99.90;;;;;;5012328;28;20044;-89
2021/12/29 01:45:00;;;;;;;19.35;4.13;;;13.10;99.90;;;;;;4994834;28;20041;-89
2021/12/29 01:47:27;;;;;;;25.50;4.88;;;13.10;99.90;;;;;;5011677;28;20391;-89
2021/12/29 01:49:53;;;;;;;33.42;7.30;;;13.10;99.90;;;;;;4994659;28;20471;-89
2021/12/29 01:52:24;;;;;;;29.63;6.32;;;13.10;99.90;;;;;;5012402;28;20024;-89
2021/12/29 01:54:50;;;;;;;29.90;7.22;;;13.10;99.90;;;;;;5012518;28;20033;-89
2021/12/29 01:57:17;;;;;;;63.22;11.52;;;13.10;99.90;;;;;;5012362;28;20018;-88
2021/12/29 01:59:43;;;;;;;34.88;8.63;;;13.10;99.90;;;;;;4994773;28;20040;-88
2021/12/29 02:02:09;;;;;;;29.92;7.75;;;13.10;99.90;;;;;;5012309;28;20430;-88
2021/12/29 02:04:34;;;;;;;112.45;20.52;;;13.00;99.90;;;;;;5011866;28;20036;-88
2021/12/29 02:07:00;;;;;;;36.83;7.25;;;13.00;99.90;;;;;;5011921;28;20017;-88
2021/12/29 02:09:26;;;;;;;44.33;6.50;;;13.00;99.90;;;;;;5012268;28;20521;-88
2021/12/29 02:11:52;;;;;;;44.05;6.53;;;13.00;99.90;;;;;;5012115;28;20054;-87
2021/12/29 02:14:18;;;;;;;49.80;7.25;;;13.00;99.90;;;;;;4994633;28;20315;-88
2021/12/29 02:16:44;;;;;;;59.92;11.05;;;12.90;99.90;;;;;;5012160;28;20034;-88
2021/12/29 02:19:12;;;;;;;64.35;15.35;;;12.90;99.90;;;;;;5011829;28;20022;-87
2021/12/29 02:21:42;;;;;;;64.43;16.30;;;12.90;99.90;;;;;;5011744;28;20049;-87
2021/12/29 02:26:36;;;;;;;45.92;10.82;;;12.90;99.90;;;;;;5011520;28;20045;-86
2021/12/29 02:29:04;;;;;;;39.35;8.43;;;12.90;99.90;;;;;;4994020;28;20129;-86
2021/12/29 02:31:30;;;;;;;65.57;12.23;;;12.90;99.90;;;;;;5011811;28;20097;-86
2021/12/29 02:33:57;;;;;;;80.18;14.52;;;12.90;99.90;;;;;;5011468;28;20049;-86
2021/12/29 02:36:23;;;;;;;89.65;15.68;;;12.90;99.90;;;;;;5011706;28;20025;-87
2021/12/29 02:38:53;;;;;;;106.47;15.02;;;12.90;99.90;;;;;;4993919;28;20060;-88
2021/12/29 02:41:20;;;;;;;90.82;14.05;;;12.90;99.90;;;;;;5011369;28;20014;-87
2021/12/29 02:43:47;;;;;;;80.53;12.15;;;12.90;99.90;;;;;;4993661;28;20088;-87
2021/12/29 02:46:16;;;;;;;90.50;12.25;;;12.90;99.90;;;;;;4993810;28;20375;-87
2021/12/29 02:48:49;;;;;;;297.80;39.13;;;13.00;99.90;;;;;;5010966;28;20052;-87
2021/12/29 02:51:15;;;;;;;267.10;34.53;;;13.00;99.90;;;;;;5011139;28;20079;-87
2021/12/29 02:53:41;;;;;;;104.85;13.85;;;13.00;99.90;;;;;;5011141;28;20104;-88
2021/12/29 02:56:07;;;;;;;210.85;26.90;;;13.00;99.90;;;;;;5011194;28;20101;-87
2021/12/29 02:58:33;;;;;;;119.38;13.93;;;13.00;99.90;;;;;;5011085;28;20402;-87
2021/12/29 03:01:01;;;;;;;105.18;13.40;;;13.00;99.90;;;;;;5011173;28;20036;-87
2021/12/29 03:03:30;;;;;;;132.48;14.85;;;13.00;99.90;;;;;;5010815;28;20034;-88
2021/12/29 03:05:56;;;;;;;128.63;16.98;;;13.00;99.90;;;;;;5010762;28;20033;-87
2021/12/29 03:08:23;;;;;;;130.80;16.23;;;13.00;99.90;;;;;;5010678;28;20026;-87
2021/12/29 03:10:52;;;;;;;132.70;15.45;;;13.00;99.90;;;;;;5010410;28;20057;-87
2021/12/29 03:13:29;;;;;;;118.60;16.38;;;13.00;99.90;;;;;;5010944;28;20076;-88
2021/12/29 03:15:56;;;;;;;141.65;14.60;;;13.00;99.90;;;;;;5010839;28;20479;-88
2021/12/29 03:18:24;;;;;;;126.75;15.85;;;13.00;99.90;;;;;;5010679;28;20050;-88
2021/12/29 03:20:50;;;;;;;127.40;14.60;;;13.00;99.90;;;;;;5010499;28;20463;-88
2021/12/29 03:23:17;;;;;;;122.68;13.23;;;13.00;99.90;;;;;;5010602;28;20065;-88
2021/12/29 03:25:47;;;;;;;119.35;14.60;;;13.00;99.90;;;;;;4992869;28;20026;-88
2021/12/29 03:28:14;;;;;;;111.13;13.15;;;13.10;99.90;;;;;;5010387;28;20108;-88
2021/12/29 03:30:41;;;;;;;117.82;13.35;;;13.10;99.90;;;;;;5010434;28;20040;-88
2021/12/29 03:33:09;;;;;;;107.68;12.85;;;13.10;99.90;;;;;;4992973;28;20068;-88
2021/12/29 03:35:41;;;;;;;130.27;14.38;;;13.10;99.90;;;;;;4992814;28;20051;-88
2021/12/29 03:38:11;;;;;;;121.45;13.98;;;13.10;99.90;;;;;;5010869;28;20045;-88
2021/12/29 03:40:38;;;;;;;118.28;13.45;;;13.10;99.90;;;;;;5010461;28;20018;-88
2021/12/29 03:43:06;;;;;;;110.25;15.02;;;13.10;99.90;;;;;;5010348;28;20042;-88
2021/12/29 03:45:32;;;;;;;123.85;13.25;;;13.10;99.90;;;;;;5010288;28;20022;-88
2021/12/29 03:47:58;;;;;;;113.00;12.68;;;13.10;99.90;;;;;;5010049;28;20054;-88
2021/12/29 03:50:24;;;;;;;97.47;12.02;;;13.10;99.90;;;;;;4992183;28;20045;-88
2021/12/29 03:52:50;;;;;;;97.50;12.05;;;13.10;99.90;;;;;;5010221;28;20025;-87
2021/12/29 03:55:16;;;;;;;102.25;13.63;;;13.10;99.90;;;;;;5010525;28;20176;-88
2021/12/29 03:57:42;;;;;;;108.15;11.52;;;13.10;99.90;;;;;;5010360;28;20599;-87
2021/12/29 04:00:12;;;;;;;99.72;12.88;;;13.10;99.90;;;;;;4992552;28;20037;-87
2021/12/29 04:02:38;;;;;;;98.35;11.60;;;13.10;99.90;;;;;;5010129;28;20025;-87
2021/12/29 04:05:05;;;;;;;93.57;12.15;;;13.10;99.90;;;;;;5009962;28;20037;-87
2021/12/29 04:07:31;;;;;;;114.63;12.23;;;13.10;99.90;;;;;;4992277;28;20018;-87
2021/12/29 04:09:58;;;;;;;98.55;12.45;;;13.10;99.90;;;;;;4996574;28;20030;-87
2021/12/29 04:12:24;;;;;;;102.78;11.43;;;13.10;99.90;;;;;;5016470;28;20029;-87
2021/12/29 04:14:50;;;;;;;110.40;12.02;;;13.10;99.90;;;;;;5016538;28;20080;-87
2021/12/29 04:17:18;;;;;;;107.90;12.73;;;13.10;99.90;;;;;;5016756;28;20022;-87
2021/12/29 04:22:31;;;;;;;111.97;12.15;;;13.20;99.90;;;;;;5016830;28;20033;-87
2021/12/29 04:24:57;;;;;;;104.13;11.27;;;13.20;99.90;;;;;;5016529;28;20025;-87
2021/12/29 04:27:25;;;;;;;93.00;12.68;;;13.20;99.90;;;;;;4998763;28;20022;-87
2021/12/29 04:29:51;;;;;;;99.60;11.27;;;13.20;99.90;;;;;;5016217;28;20030;-88
2021/12/29 04:32:18;;;;;;;103.57;12.77;;;13.30;99.90;;;;;;4998637;28;20029;-88
2021/12/29 04:34:43;;;;;;;97.47;11.63;;;13.30;99.90;;;;;;4998526;28;20040;-87
2021/12/29 04:37:09;;;;;;;112.55;11.95;;;13.30;99.90;;;;;;5016286;28;20018;-88
2021/12/29 04:39:35;;;;;;;92.65;11.75;;;13.30;99.90;;;;;;4998676;28;20026;-87
2021/12/29 04:42:01;;;;;;;83.97;11.65;;;13.30;99.90;;;;;;5016174;28;20133;-86
2021/12/29 04:44:26;;;;;;;95.45;12.18;;;13.40;99.90;;;;;;5016282;28;20520;-87
2021/12/29 04:46:54;;;;;;;74.00;10.98;;;13.40;99.90;;;;;;5016306;28;20300;-88
2021/12/29 04:49:27;;;;;;;94.18;12.50;;;13.40;99.90;;;;;;4998325;28;20037;-88
2021/12/29 04:52:03;;;;;;;96.88;12.23;;;13.30;99.90;;;;;;5016051;28;20267;-87
2021/12/29 04:54:29;;;;;;;102.65;12.88;;;13.30;99.90;;;;;;4998545;28;20037;-86
2021/12/29 04:56:55;;;;;;;102.47;12.05;;;13.30;99.90;;;;;;5015992;28;20109;-86
2021/12/29 04:59:22;;;;;;;98.60;13.23;;;13.30;99.90;;;;;;5016323;28;20513;-86
2021/12/29 05:01:48;;;;;;;87.20;11.02;;;13.20;99.90;;;;;;5016114;28;20525;-86
2021/12/29 05:04:28;;;;;;;91.68;13.15;;;13.20;99.90;;;;;;5015911;28;20030;-86
2021/12/29 05:09:38;;;;;;;91.32;12.13;;;13.20;99.90;;;;;;5016258;28;20248;-86
2021/12/29 05:12:05;;;;;;;94.75;11.35;;;13.20;99.90;;;;;;4998076;28;20185;-86
2021/12/29 05:14:31;;;;;;;89.00;11.57;;;13.20;99.90;;;;;;5015920;28;20026;-86
2021/12/29 05:16:57;;;;;;;79.78;12.05;;;13.10;99.90;;;;;;4998073;28;20032;-87
2021/12/29 05:19:23;;;;;;;102.93;12.68;;;13.10;99.90;;;;;;5015739;28;20036;-86
2021/12/29 05:21:48;;;;;;;107.22;13.35;;;13.10;99.90;;;;;;5012248;28;20053;-86
2021/12/29 05:24:14;;;;;;;92.20;11.68;;;13.10;99.90;;;;;;4995181;28;20541;-86
2021/12/29 05:26:40;;;;;;;111.68;15.25;;;13.10;99.90;;;;;;5012938;28;20026;-85
2021/12/29 05:29:05;;;;;;;78.65;10.80;;;13.10;99.90;;;;;;5012721;28;20022;-86
2021/12/29 05:31:31;;;;;;;88.60;11.02;;;13.00;99.90;;;;;;5012399;28;20036;-86
2021/12/29 05:33:58;;;;;;;109.10;12.90;;;13.00;99.90;;;;;;5012460;28;20434;-85
2021/12/29 05:36:24;;;;;;;89.55;12.45;;;13.10;99.90;;;;;;5012842;28;20026;-86
2021/12/29 05:38:50;;;;;;;107.72;13.90;;;13.00;99.90;;;;;;5012621;28;20029;-86
2021/12/29 05:41:15;;;;;;;86.25;11.63;;;13.00;99.90;;;;;;5012589;28;20071;-85
2021/12/29 05:43:41;;;;;;;94.85;12.20;;;13.00;99.90;;;;;;5012434;28;20044;-86
2021/12/29 05:46:07;;;;;;;109.85;13.38;;;13.00;99.90;;;;;;5012345;28;20026;-85
2021/12/29 05:48:33;;;;;;;91.93;12.13;;;12.90;99.90;;;;;;5012410;28;20091;-86
2021/12/29 05:51:00;;;;;;;88.03;11.27;;;13.00;99.90;;;;;;4994423;28;20112;-86
2021/12/29 05:53:25;;;;;;;94.90;12.25;;;13.00;99.90;;;;;;5012197;28;20022;-86
2021/12/29 05:55:52;;;;;;;104.07;12.00;;;13.00;99.90;;;;;;4994470;28;20030;-86
2021/12/29 05:58:17;;;;;;;89.03;11.57;;;13.00;99.90;;;;;;4994592;28;20033;-86
2021/12/29 06:00:43;;;;;;;78.32;10.18;;;13.00;99.90;;;;;;5012397;28;20402;-86
2021/12/29 06:03:09;;;;;;;99.63;11.98;;;13.00;99.90;;;;;;5012236;28;20057;-86
2021/12/29 06:05:36;;;;;;;89.95;12.05;;;13.00;99.90;;;;;;4994567;28;20390;-86
2021/12/29 06:08:03;;;;;;;106.50;11.32;;;13.00;99.90;;;;;;4994588;28;20026;-85
2021/12/29 06:10:29;;;;;;;91.05;13.50;;;13.00;99.90;;;;;;4994429;28;20454;-86
2021/12/29 06:12:55;;;;;;;85.15;11.57;;;13.00;99.90;;;;;;5011665;28;20466;-86
2021/12/29 06:15:21;;;;;;;101.28;12.05;;;13.10;99.90;;;;;;5011919;28;20029;-86
2021/12/29 06:17:48;;;;;;;110.85;12.98;;;13.10;99.90;;;;;;4994314;28;20030;-87
2021/12/29 06:20:14;;;;;;;123.18;13.18;;;13.10;99.90;;;;;;5011715;28;20101;-85
2021/12/29 06:22:41;;;;;;;102.43;13.02;;;13.20;99.90;;;;;;5012164;28;20034;-85
2021/12/29 06:25:10;;;;;;;82.80;11.00;;;13.10;99.90;;;;;;5011874;28;20026;-86
2021/12/29 06:27:35;;;;;;;93.80;12.45;;;13.10;99.90;;;;;;5011643;28;20076;-85
2021/12/29 06:30:01;;;;;;;105.93;12.73;;;13.10;99.90;;;;;;5011628;28;20482;-86
2021/12/29 06:32:27;;;;;;;96.93;11.82;;;13.20;99.90;;;;;;5011263;28;20068;-86
2021/12/29 06:34:53;;;;;;;92.45;10.25;;;13.20;99.90;;;;;;5011566;28;20447;-86
2021/12/29 06:37:19;;;;;;;84.95;11.70;;;13.10;99.90;;;;;;4993893;28;20030;-85
2021/12/29 06:39:45;;;;;;;70.25;8.88;;;13.20;99.90;;;;;;5011706;28;20531;-85
2021/12/29 06:42:12;;;;;;;61.47;7.90;;;13.20;99.90;;;;;;5011408;28;20392;-85
2021/12/29 06:44:38;;;;;;;49.13;8.30;;;13.20;99.90;;;;;;4993913;28;20387;-83
2021/12/29 06:47:05;;;;;;;58.38;9.32;;;13.20;99.90;;;;;;5011243;28;20487;-82
2021/12/29 06:49:31;;;;;;;53.50;6.93;;;13.20;99.90;;;;;;5011255;28;20051;-82
2021/12/29 06:51:56;;;;;;;59.15;8.73;;;13.20;99.90;;;;;;5011092;28;20157;-83
2021/12/29 06:54:22;;;;;;;51.55;8.20;;;13.10;99.90;;;;;;5011158;28;20026;-83
2021/12/29 06:56:48;;;;;;;61.47;9.35;;;13.20;99.90;;;;;;4993371;28;20033;-84
2021/12/29 06:59:14;;;;;;;53.70;8.43;;;13.20;99.90;;;;;;5011277;28;20029;-84
2021/12/29 07:01:39;;;;;;;79.80;10.63;;;13.20;99.90;;;;;;4993531;28;20025;-84
2021/12/29 07:04:05;;;;;;;56.72;9.65;;;13.20;99.90;;;;;;5011134;28;20088;-85
2021/12/29 07:06:31;;;;;;;60.95;8.73;;;13.20;99.90;;;;;;5011225;28;20022;-85
2021/12/29 07:08:56;;;;;;;71.00;9.15;;;13.20;99.90;;;;;;5010998;28;20022;-85
2021/12/29 07:11:22;;;;;;;71.00;10.00;;;13.20;99.90;;;;;;5011195;28;20080;-85
2021/12/29 07:13:49;;;;;;;187.27;42.58;;;13.20;99.90;;;;;;5010757;28;20018;-85
2021/12/29 07:16:14;;;;;;;77.40;9.60;;;13.30;99.90;;;;;;5010710;28;20030;-85
2021/12/29 07:18:40;;;;;;;53.50;8.05;;;13.20;99.90;;;;;;5010652;28;20029;-85
2021/12/29 07:21:06;;;;;;;70.32;9.80;;;13.20;99.90;;;;;;5010786;28;20026;-85
2021/12/29 07:23:32;;;;;;;101.90;9.98;;;13.20;99.90;;;;;;4992692;28;20037;-85
2021/12/29 07:25:57;;;;;;;129.73;21.02;;;13.20;99.90;;;;;;5010773;28;20637;-88
2021/12/29 07:28:23;;;;;;;80.78;9.85;;;13.20;99.90;;;;;;4993138;28;20022;-88
2021/12/29 07:30:49;;;;;;;68.32;9.95;;;13.20;99.90;;;;;;5010603;28;20553;-88
2021/12/29 07:33:14;;;;;;;81.03;9.75;;;13.10;99.90;;;;;;4992878;28;20297;-89
2021/12/29 07:35:40;;;;;;;75.13;9.35;;;13.20;99.90;;;;;;4992643;28;20025;-89
2021/12/29 07:38:06;;;;;;;75.82;8.75;;;13.20;99.90;;;;;;5010499;28;20153;-89
2021/12/29 07:40:34;;;;;;;71.65;8.98;;;13.20;99.90;;;;;;4992961;28;20072;-90
2021/12/29 07:43:01;;;;;;;71.97;9.63;;;13.20;99.90;;;;;;4992745;28;20026;-89
2021/12/29 07:45:27;;;;;;;73.38;10.10;;;13.20;99.90;;;;;;5010444;28;20131;-91
2021/12/29 07:47:53;;;;;;;77.75;10.52;;;13.20;99.90;;;;;;5010776;28;20096;-91
2021/12/29 07:50:20;;;;;;;87.43;10.02;;;13.20;99.90;;;;;;5010735;28;20482;-92
2021/12/29 07:52:48;;;;;;;87.10;10.90;;;13.20;99.90;;;;;;4992804;28;20029;-90
2021/12/29 07:55:18;;;;;;;88.55;9.23;;;13.20;99.90;;;;;;5010206;28;20022;-89
2021/12/29 07:57:44;;;;;;;80.03;9.13;;;13.20;99.90;;;;;;4992555;28;20087;-90
2021/12/29 08:00:11;;;;;;;53.53;8.18;;;13.20;99.90;;;;;;4992645;28;20060;-90
2021/12/29 08:02:37;;;;;;;65.60;8.27;;;13.30;99.90;;;;;;4992606;28;20037;-90
2021/12/29 08:05:07;;;;;;;72.22;9.27;;;13.30;99.90;;;;;;4992670;28;20022;-90
2021/12/29 08:07:33;;;;;;;70.22;9.85;;;13.30;99.90;;;;;;5010314;28;20112;-90
2021/12/29 08:09:59;;;;;;;83.20;10.88;;;13.30;99.90;;;;;;4992705;28;20021;-89
2021/12/29 08:12:25;;;;;;;55.38;9.25;;;13.30;99.90;;;;;;5010022;28;20034;-90
2021/12/29 08:14:51;;;;;;;54.03;8.02;;;13.40;99.90;;;;;;5010281;28;20061;-90
2021/12/29 08:17:17;;;;;;;58.78;9.93;;;13.40;99.90;;;;;;5010200;28;20352;-90
2021/12/29 08:19:43;;;;;;;60.50;8.80;;;13.40;99.90;;;;;;5009853;28;20490;-90
2021/12/29 08:22:10;;;;;;;66.70;8.50;;;13.40;99.90;;;;;;4992570;28;20133;-90
2021/12/29 08:24:36;;;;;;;52.80;9.00;;;13.40;99.90;;;;;;4993039;28;20038;-90
2021/12/29 08:27:04;;;;;;;56.20;8.27;;;13.40;99.90;;;;;;4992659;28;20057;-90
2021/12/29 08:29:30;;;;;;;42.97;7.70;;;13.40;99.90;;;;;;5010526;28;20026;-91
2021/12/29 08:31:57;;;;;;;57.30;8.35;;;13.40;99.90;;;;;;4992599;28;20026;-91
2021/12/29 08:34:24;;;;;;;57.25;8.63;;;13.40;99.90;;;;;;4992278;28;20026;-91
2021/12/29 08:36:50;;;;;;;40.13;7.57;;;13.40;99.90;;;;;;4992685;28;20033;-91
2021/12/29 08:39:18;;;;;;;51.72;7.10;;;13.40;99.90;;;;;;4992577;28;20053;-91
2021/12/29 08:41:45;;;;;;;55.72;7.85;;;13.40;99.90;;;;;;5010375;28;20545;-91
2021/12/29 08:44:11;;;;;;;58.67;9.43;;;13.40;99.90;;;;;;4992657;28;20411;-91
2021/12/29 08:46:37;;;;;;;64.43;8.45;;;13.40;99.90;;;;;;4992671;28;20106;-91
2021/12/29 08:49:03;;;;;;;53.25;7.22;;;13.50;99.90;;;;;;4992659;28;20128;-91
2021/12/29 08:51:29;;;;;;;63.83;8.48;;;13.40;99.90;;;;;;4992664;28;20026;-91
2021/12/29 08:53:56;;;;;;;63.28;9.63;;;13.40;99.90;;;;;;4992706;28;20033;-91
2021/12/29 08:56:22;;;;;;;71.70;9.40;;;13.40;99.90;;;;;;4995355;28;20025;-90
2021/12/29 08:58:49;;;;;;;65.75;8.45;;;13.40;99.90;;;;;;4996202;28;20482;-91
2021/12/29 09:01:14;;;;;;;66.45;10.15;;;13.50;99.90;;;;;;4996293;28;20112;-91
2021/12/29 09:03:41;;;;;;;62.33;9.02;;;13.50;99.90;;;;;;4995769;28;20558;-90
2021/12/29 09:06:07;;;;;;;72.00;8.25;;;13.50;99.90;;;;;;5013572;28;20029;-92
2021/12/29 09:08:33;;;;;;;58.47;8.13;;;13.50;99.90;;;;;;5014044;28;20022;-91
2021/12/29 09:10:59;;;;;;;65.75;8.50;;;13.50;99.90;;;;;;5014106;28;20454;-91
2021/12/29 09:13:24;;;;;;;61.20;7.78;;;13.60;99.90;;;;;;5013703;28;20060;-91
2021/12/29 09:15:56;;;;;;;52.92;7.00;;;13.60;99.90;;;;;;4995897;28;20072;-90
2021/12/29 09:18:23;;;;;;;57.47;8.45;;;13.60;99.90;;;;;;5013486;28;20029;-90
2021/12/29 09:20:49;;;;;;;59.63;7.80;;;13.60;99.90;;;;;;4995695;28;20053;-91
2021/12/29 09:23:15;;;;;;;51.65;6.72;;;13.60;99.90;;;;;;4995637;28;20132;-91
2021/12/29 09:25:43;;;;;;;60.05;7.85;;;13.60;99.90;;;;;;4995981;28;20061;-91
2021/12/29 09:28:12;;;;;;;47.45;6.88;;;13.60;99.90;;;;;;4995592;28;20026;-90
2021/12/29 09:30:40;;;;;;;47.10;6.82;;;13.60;99.90;;;;;;4995596;28;20025;-90
2021/12/29 09:33:08;;;;;;;45.78;7.95;;;13.60;99.90;;;;;;4995652;28;20026;-90
2021/12/29 09:35:34;;;;;;;45.10;8.48;;;13.60;99.90;;;;;;4995331;28;20291;-90
2021/12/29 09:38:00;;;;;;;45.15;6.28;;;13.60;99.90;;;;;;4995391;28;20422;-90
2021/12/29 09:40:26;;;;;;;47.67;6.63;;;13.60;99.90;;;;;;5012724;28;20022;-90
2021/12/29 09:42:53;;;;;;;44.90;6.38;;;13.60;99.90;;;;;;5012767;28;20065;-90
2021/12/29 09:45:19;;;;;;;46.42;6.30;;;13.60;99.90;;;;;;4995076;28;20048;-89
2021/12/29 09:47:45;;;;;;;50.10;6.72;;;13.60;99.90;;;;;;4994960;28;20058;-89
2021/12/29 09:50:17;;;;;;;40.60;6.70;;;13.60;99.90;;;;;;5012690;28;20046;-89
2021/12/29 09:52:43;;;;;;;39.35;5.50;;;13.60;99.90;;;;;;4995248;28;20420;-89
2021/12/29 09:55:13;;;;;;;47.22;7.30;;;13.60;99.90;;;;;;4995118;28;20026;-89
2021/12/29 09:57:46;;;;;;;42.28;6.68;;;13.60;99.90;;;;;;5012815;28;20030;-88
2021/12/29 10:00:50;;;;;;;31.95;5.75;;;13.60;99.90;;;;;;5012450;28;20050;-88
2021/12/29 10:03:19;;;;;;;73.90;10.77;;;13.60;99.90;;;;;;4999549;28;20038;-87
2021/12/29 10:05:48;;;;;;;39.28;6.15;;;13.60;99.90;;;;;;4994435;28;20041;-88
2021/12/29 10:08:19;;;;;;;42.20;5.65;;;13.60;99.90;;;;;;5011538;28;20434;-88
2021/12/29 10:10:50;;;;;;;45.40;6.15;;;13.60;99.90;;;;;;5012259;28;20113;-87
2021/12/29 10:13:17;;;;;;;42.85;6.50;;;13.60;99.90;;;;;;5012337;28;20383;-86
2021/12/29 10:15:47;;;;;;;38.78;6.75;;;13.70;99.90;;;;;;5012149;28;20402;-86
2021/12/29 10:18:17;;;;;;;45.63;6.70;;;13.70;99.90;;;;;;5011886;28;20030;-86
2021/12/29 10:20:49;;;;;;;49.97;7.03;;;13.70;99.90;;;;;;5011727;28;20034;-86
2021/12/29 10:23:27;;;;;;;39.70;5.85;;;13.70;99.90;;;;;;5011768;28;20076;-85
2021/12/29 10:25:56;;;;;;;45.78;6.70;;;13.70;99.90;;;;;;5011735;28;20017;-85
2021/12/29 10:28:29;;;;;;;52.17;6.75;;;13.80;99.90;;;;;;5011730;28;20101;-84
2021/12/29 10:31:07;;;;;;;46.55;6.47;;;13.80;99.90;;;;;;5011905;28;20029;-85
2021/12/29 10:33:41;;;;;;;50.72;6.95;;;13.80;99.90;;;;;;5011502;28;20398;-85
2021/12/29 10:36:40;;;;;;;61.33;7.57;;;13.80;99.90;;;;;;4993949;28;20040;-84
2021/12/29 10:39:14;;;;;;;49.60;6.30;;;13.80;99.90;;;;;;4978397;28;20505;-85
2021/12/29 10:41:55;;;;;;;51.67;6.00;;;13.90;99.90;;;;;;4993692;28;20022;-85
2021/12/29 10:44:48;;;;;;;47.42;6.43;;;13.80;99.90;;;;;;5011348;28;20038;-84
2021/12/29 10:47:20;;;;;;;43.38;6.20;;;13.90;99.90;;;;;;4985912;28;20270;-84
2021/12/29 10:49:50;;;;;;;46.45;6.07;;;13.90;99.90;;;;;;4991576;28;20022;-84
2021/12/29 10:52:26;;;;;;;35.67;5.35;;;14.00;99.90;;;;;;4991867;28;20471;-84
2021/12/29 10:54:52;;;;;;;41.17;6.65;;;14.00;99.90;;;;;;4992154;28;20042;-84
2021/12/29 10:57:18;;;;;;;38.25;5.32;;;14.00;99.90;;;;;;4991701;28;20400;-84
2021/12/29 10:59:44;;;;;;;40.40;5.22;;;14.00;99.90;;;;;;4973835;28;20399;-84
2021/12/29 11:02:11;;;;;;;37.83;4.72;;;14.00;99.90;;;;;;4973902;28;20030;-84
2021/12/29 11:04:37;;;;;;;39.80;5.50;;;13.90;99.90;;;;;;4973574;28;20513;-84
2021/12/29 11:07:04;;;;;;;43.75;5.43;;;13.90;99.90;;;;;;4991300;28;20062;-84
2021/12/29 11:09:35;;;;;;;31.90;4.82;;;13.90;99.90;;;;;;4991606;28;20037;-84
2021/12/29 11:12:09;;;;;;;37.53;5.25;;;13.80;99.90;;;;;;4991445;28;20033;-84
2021/12/29 11:14:37;;;;;;;34.70;5.53;;;13.80;99.90;;;;;;4991212;28;20419;-85
2021/12/29 11:17:11;;;;;;;28.77;5.18;;;13.80;99.90;;;;;;4991390;28;20603;-84
2021/12/29 11:19:44;;;;;;;34.70;4.63;;;13.90;99.90;;;;;;4989427;28;20029;-85
2021/12/29 11:22:13;;;;;;;38.38;5.55;;;13.90;99.90;;;;;;5008513;28;20025;-85
2021/12/29 11:24:40;;;;;;;35.53;4.82;;;13.90;99.90;;;;;;5010748;28;20153;-85
2021/12/29 11:27:15;;;;;;;43.08;5.15;;;13.90;99.90;;;;;;4993282;28;20045;-85
2021/12/29 11:29:49;;;;;;;45.88;6.85;;;13.90;99.90;;;;;;5010752;28;20026;-85
2021/12/29 11:32:23;;;;;;;44.08;5.25;;;13.90;99.90;;;;;;5010731;28;20026;-85
2021/12/29 11:35:09;;;;;;;33.13;4.35;;;13.90;99.90;;;;;;5010626;28;20073;-85
2021/12/29 11:37:41;;;;;;;29.25;4.60;;;13.90;99.90;;;;;;5010610;28;20030;-85
2021/12/29 11:40:08;;;;;;;26.27;4.65;;;14.00;99.90;;;;;;4985410;28;20497;-86
2021/12/29 11:42:35;;;;;;;32.97;4.32;;;14.00;99.90;;;;;;5010426;28;20029;-85
2021/12/29 11:45:01;;;;;;;34.78;4.85;;;14.10;99.90;;;;;;4992748;28;20025;-86
2021/12/29 11:47:27;;;;;;;37.70;5.03;;;14.10;99.90;;;;;;5010194;28;20426;-84
2021/12/29 11:49:52;;;;;;;28.23;4.60;;;14.10;99.90;;;;;;4992621;28;20038;-85
2021/12/29 11:52:58;;;;;;;32.67;3.83;;;14.20;99.90;;;;;;4992818;28;20029;-84
2021/12/29 11:55:32;;;;;;;31.67;4.13;;;14.20;99.90;;;;;;5010586;28;20503;-85
2021/12/29 11:58:16;;;;;;;25.58;3.63;;;14.10;99.90;;;;;;5010727;28;20538;-85
2021/12/29 12:00:44;;;;;;;;;;;14.10;99.90;;;;;;5010817;28;20490;-85
2021/12/29 12:03:17;;;;;;;34.15;4.47;;;14.00;99.90;;;;;;5010026;28;19963;-85
2021/12/29 12:05:47;;;;;;;35.85;4.13;;;13.90;99.90;;;;;;5010453;28;20025;-85
2021/12/29 12:08:22;;;;;;;41.90;4.85;;;13.90;99.90;;;;;;5010148;28;20348;-85
2021/12/29 12:10:48;;;;;;;45.35;4.90;;;14.00;99.90;;;;;;5010141;28;20034;-85
2021/12/29 12:13:22;;;;;;;35.53;5.13;;;14.00;99.90;;;;;;5010367;28;20034;-85
2021/12/29 12:15:49;;;;;;;40.38;5.47;;;14.00;99.90;;;;;;4992416;28;20030;-85
2021/12/29 12:18:18;;;;;;;45.08;7.15;;;14.00;99.90;;;;;;5010213;28;20116;-86
2021/12/29 12:20:50;;;;;;;37.60;6.63;;;14.00;99.90;;;;;;4992447;28;20062;-85
2021/12/29 12:23:28;;;;;;;34.85;5.65;;;13.90;99.90;;;;;;5010183;28;20030;-85
2021/12/29 12:26:07;;;;;;;39.47;6.05;;;13.90;99.90;;;;;;5009892;28;20022;-85
2021/12/29 12:28:46;;;;;;;42.28;6.35;;;13.90;99.90;;;;;;5009915;28;20029;-85
2021/12/29 12:31:27;;;;;;;42.25;6.07;;;13.90;99.90;;;;;;5012611;28;20028;-85
2021/12/29 12:34:05;;;;;;;39.97;6.60;;;13.90;99.90;;;;;;5013519;28;20034;-85
2021/12/29 12:36:32;;;;;;;39.03;6.03;;;13.90;99.90;;;;;;5014197;28;20053;-85
2021/12/29 12:39:13;;;;;;;33.50;5.00;;;13.90;99.90;;;;;;5013988;28;20509;-85
2021/12/29 12:41:42;;;;;;;38.22;4.95;;;13.90;99.90;;;;;;4995942;28;20391;-85
2021/12/29 12:44:08;;;;;;;46.97;7.32;;;13.90;99.90;;;;;;5013535;28;20030;-85